Ketchikan International Airport Ketchikan US
ICAO: PAKT
IATA: KTN
Category: Medium
Scheduled Services:

Elevation: 89 ft
TransAlt. 18000 ft.

Airport Communications:
ATIS:119.9
ANCHORAGE CNTR:118.5
CTAF:123.6
RDO:123.6
UNICOM:122.95

PAKT Zoom In..

If you have problems with the map follow the link
https://www.worldairports.se/pages/airport.php?
ICAO=PAKT

Runways:

(A) RW 11 length 7500 ft width 150 ft
ILS 109.30 / hdg 115

(B) RW 29 length 7500 ft width 150 ft
---- / hdg 295

Location; PAKT
Day. 21 / Time. 19.53 Zulu
* Altimeter: 29.37
* Temperature: 03° c. 37.4°f.
* Wind from: PAK° Speed T kn.
Dewpoint: 02° c.
Visibility: 10 Statute Miles.
Clouds: Broken 4700 ft.
Clouds: Overcast 6500 ft.

PAKT 211953Z 00000KT 10SM BKN047 OVC065 03/02 A2937 RMK HARBOR WIND VRB05KT


Wind From PAK°
Speed T kn.

 
 
jpsmedia worldairports.se 2020   terms of use